»·PEaware :: N669TW KBUR-KMHV

N669TW :: KBUR-KMHV

FLIGHT INFORMATION

Flight Status: Arrived
Operator: Privately registered:
United States
More flights under this callsign
Pilot: Kevin S. (26378)
Aircraft: CESSNA 172 SKYHAWK
(C172)
More flights by this aircraft type
Origin: KBUR Bob Hope-Burbank
United States
Destination: KMHV Mojave
United States
More flights between these airports :: More routes between these airports
Route: SLAPP PMD FISCH
File this flight plan on PilotEdge
Remarks:
Altitude:
(Current/Filed)
7,500ft
Speed:
(Current/Filed)
110kts
Departed: 08-Dec-19 05:52 PM
Arrived: 08-Dec-19 06:36 PM
Distance/Time
Traveled:
52nm/0:44
Distance/Time
To Go:
Arrived

Flight Plot

Page will automatically refresh every two minutes.

Flight plan parsing failed; only flown route is shown


Map Options




Map Legend


Flown Route
Filed Route
Departure Airport
Arrival Airport
Navaid (VOR, NDB)
Fix

Horizontal Profiles

Position Reports

Time Latitude Longitude Heading Altitude Ground
Speed
08-Dec-19 17:29 34.196344 -118.367565 358 722ft 0kts
08-Dec-19 17:30 34.196344 -118.367565 358 722ft 0kts
08-Dec-19 17:32 34.196344 -118.367565 358 722ft 0kts
08-Dec-19 17:32 34.196344 -118.367565 358 722ft 0kts
08-Dec-19 17:33 34.196344 -118.367565 358 722ft 0kts
08-Dec-19 17:34 34.196344 -118.367565 358 722ft 0kts
08-Dec-19 17:35 34.196344 -118.367565 358 722ft 0kts
08-Dec-19 17:36 34.196344 -118.367565 358 722ft 0kts
08-Dec-19 17:37 34.196347 -118.367565 358 722ft 0kts
08-Dec-19 17:38 34.196347 -118.367565 357 722ft 0kts
08-Dec-19 17:39 34.196347 -118.367565 357 722ft 0kts
08-Dec-19 17:40 34.196347 -118.367565 357 722ft 0kts
08-Dec-19 17:41 34.196347 -118.367565 357 722ft 0kts
08-Dec-19 17:42 34.196347 -118.367565 357 722ft 0kts
08-Dec-19 17:43 34.196348 -118.367565 357 722ft 0kts
08-Dec-19 17:44 34.196475 -118.367641 290 722ft 1kts
08-Dec-19 17:45 34.196512 -118.367125 96 722ft 7kts
08-Dec-19 17:46 34.197030 -118.368797 299 723ft 1kts
08-Dec-19 17:47 34.197066 -118.368862 308 724ft 0kts
08-Dec-19 17:48 34.197066 -118.368862 308 724ft 0kts
08-Dec-19 17:49 34.197077 -118.368878 310 724ft 0kts
08-Dec-19 17:50 34.197893 -118.367526 88 725ft 26kts
08-Dec-19 17:51 34.198776 -118.341246 54 1273ft 98kts
08-Dec-19 17:52 34.221013 -118.347584 310 2120ft 93kts
08-Dec-19 17:53 34.228264 -118.374836 262 2680ft 85kts
08-Dec-19 17:54 34.225545 -118.404045 258 2906ft 88kts
08-Dec-19 17:55 34.219830 -118.432613 248 2994ft 86kts
08-Dec-19 17:56 34.230021 -118.451314 349 3030ft 98kts
08-Dec-19 17:57 34.257630 -118.447876 351 3669ft 95kts
08-Dec-19 17:58 34.283796 -118.453157 337 4369ft 93kts
08-Dec-19 17:59 34.309044 -118.460498 341 5020ft 95kts
08-Dec-19 18:00 34.334901 -118.467412 341 5519ft 98kts
08-Dec-19 18:01 34.361541 -118.475179 338 5767ft 99kts
08-Dec-19 18:02 34.388256 -118.477789 35 5815ft 103kts
08-Dec-19 18:03 34.405320 -118.444020 57 5674ft 121kts
08-Dec-19 18:04 34.426122 -118.412612 41 5375ft 117kts
08-Dec-19 18:05 34.446424 -118.380994 58 4739ft 124kts
08-Dec-19 18:06 34.461705 -118.346985 53 5441ft 112kts
08-Dec-19 18:07 34.481029 -118.316276 41 5969ft 114kts
08-Dec-19 18:08 34.501346 -118.286490 46 6540ft 118kts
08-Dec-19 18:09 34.520854 -118.253809 50 6715ft 120kts
08-Dec-19 18:10 34.542421 -118.221738 48 6545ft 125kts
08-Dec-19 18:11 34.561168 -118.186954 51 6250ft 118kts
08-Dec-19 18:12 34.582191 -118.155251 46 6090ft 128kts
08-Dec-19 18:13 34.607339 -118.124052 39 6164ft 128kts
08-Dec-19 18:14 34.633165 -118.096196 8 6061ft 115kts
08-Dec-19 18:15 34.656615 -118.105888 298 5508ft 99kts
08-Dec-19 18:16 34.674442 -118.130355 299 5155ft 94kts
08-Dec-19 18:17 34.693751 -118.152750 307 5050ft 95kts
08-Dec-19 18:18 34.715383 -118.172387 308 4996ft 96kts
08-Dec-19 18:19 34.732572 -118.195968 293 5014ft 91kts
08-Dec-19 18:20 34.742936 -118.223480 283 5036ft 88kts
08-Dec-19 18:21 34.755556 -118.249375 330 5004ft 104kts
08-Dec-19 18:22 34.785458 -118.240937 353 5012ft 107kts
08-Dec-19 18:23 34.813937 -118.246283 333 4970ft 101kts
08-Dec-19 18:24 34.841179 -118.242229 8 4944ft 112kts
08-Dec-19 18:25 34.866556 -118.231560 12 5012ft 108kts
08-Dec-19 18:26 34.895340 -118.215309 48 5069ft 117kts
08-Dec-19 18:27 34.912366 -118.182295 47 4767ft 114kts
08-Dec-19 18:28 34.938009 -118.164974 2 4764ft 104kts
08-Dec-19 18:29 34.965520 -118.157686 3 4779ft 106kts
08-Dec-19 18:30 34.993212 -118.149013 34 4541ft 115kts
08-Dec-19 18:31 35.016404 -118.123069 44 4005ft 104kts
08-Dec-19 18:32 35.035936 -118.119747 306 3238ft 69kts
08-Dec-19 18:33 35.047986 -118.134610 317 2706ft 49kts
08-Dec-19 18:34 35.055870 -118.144400 314 2731ft 45kts
08-Dec-19 18:35 35.057530 -118.147621 274 2740ft 0kts

Navigation Log

Ident Type
Flight plan parsing failed, navigation log unavailable